createdAt,value
2023-05-19T00:07:32.711Z,10.0500
2023-05-19T00:09:33.672Z,10.0644
2023-05-19T00:10:34.787Z,10.0706
2023-05-19T00:13:37.322Z,10.0809
2023-05-19T00:20:40.060Z,10.0727
2023-05-19T00:21:41.099Z,10.0730
2023-05-19T00:23:42.369Z,10.0684
2023-05-19T00:24:42.912Z,10.0658
2023-05-19T00:25:43.599Z,10.0643
2023-05-19T00:26:44.749Z,10.0604
2023-05-19T00:28:45.662Z,10.0542
2023-05-19T00:29:46.719Z,10.0527
2023-05-19T00:34:49.368Z,10.0421
2023-05-19T00:36:50.043Z,10.0434
2023-05-19T00:37:50.088Z,10.0410
2023-05-19T00:38:50.956Z,10.0375
2023-05-19T00:39:51.941Z,10.0333
2023-05-19T00:40:52.523Z,10.0289
2023-05-19T00:41:52.840Z,10.0208
2023-05-19T00:42:53.300Z,10.0115
2023-05-19T00:43:54.149Z,10.0025
2023-05-19T00:45:54.522Z,9.9860
2023-05-19T00:46:54.772Z,9.9786
2023-05-19T00:48:53.054Z,9.9579
2023-05-19T00:49:53.390Z,9.9528
2023-05-19T00:50:54.376Z,9.9462
2023-05-19T00:51:55.089Z,9.9387
2023-05-19T00:52:57.026Z,9.9271
2023-05-19T01:00:00.524Z,9.8684
2023-05-19T01:05:04.142Z,9.8398
2023-05-19T01:06:04.704Z,9.8315
2023-05-19T01:08:04.549Z,9.8073
2023-05-19T01:10:05.566Z,9.7776
2023-05-19T01:11:06.125Z,9.7598
2023-05-19T01:18:09.122Z,9.6521
2023-05-19T01:25:14.664Z,9.5535
2023-05-19T01:27:15.383Z,9.5361
2023-05-19T01:29:16.427Z,9.5213
2023-05-19T01:37:21.055Z,9.4775
2023-05-19T01:40:21.560Z,9.4569
2023-05-19T01:41:22.479Z,9.4494
2023-05-19T01:42:23.270Z,9.4414
2023-05-19T01:43:23.661Z,9.4332
2023-05-19T01:45:26.309Z,9.4109
2023-05-19T01:47:27.944Z,9.3922
2023-05-19T01:58:35.410Z,9.3196
2023-05-19T01:59:36.504Z,9.3153
2023-05-19T02:00:37.569Z,9.3126
2023-05-19T02:01:38.409Z,9.3121
2023-05-19T02:08:42.002Z,9.3310
2023-05-19T02:10:43.378Z,9.3311
2023-05-19T02:11:44.520Z,9.3303
2023-05-19T02:12:44.664Z,9.3307
2023-05-19T02:13:45.684Z,9.3300
2023-05-19T02:14:46.036Z,9.3256
2023-05-19T02:15:49.077Z,9.3212
2023-05-19T02:16:50.410Z,9.3145
2023-05-19T02:17:51.115Z,9.3097
2023-05-19T02:18:51.537Z,9.3027
2023-05-19T02:19:51.531Z,9.2982
2023-05-19T02:20:52.442Z,9.2947
2023-05-19T02:21:52.988Z,9.2922
2023-05-19T02:22:53.936Z,9.2900
2023-05-19T02:23:54.592Z,9.2864
2023-05-19T02:24:54.639Z,9.2851
2023-05-19T02:25:55.484Z,9.2807
2023-05-19T02:26:55.978Z,9.2776
2023-05-19T02:27:57.350Z,9.2743
2023-05-19T02:28:58.107Z,9.2692
2023-05-19T02:29:58.102Z,9.2630
2023-05-19T02:31:00.069Z,9.2557
2023-05-19T02:32:00.906Z,9.2487
2023-05-19T02:39:03.809Z,9.1943
2023-05-19T02:42:06.234Z,9.1843
2023-05-19T02:44:07.122Z,9.1692
2023-05-19T02:53:19.514Z,9.1208
2023-05-19T02:54:19.723Z,9.1153
2023-05-19T02:55:21.066Z,9.1095
2023-05-19T02:56:22.181Z,9.1033
2023-05-19T02:57:24.166Z,9.0996
2023-05-19T02:58:24.300Z,9.0974
2023-05-19T02:59:25.708Z,9.0942
2023-05-19T03:00:24.937Z,9.0914
2023-05-19T03:01:25.667Z,9.0877
2023-05-19T03:02:26.006Z,9.0831
2023-05-19T03:03:26.651Z,9.0809
2023-05-19T03:04:26.682Z,9.0796
2023-05-19T03:05:28.070Z,9.0797
2023-05-19T03:06:29.066Z,9.0780
2023-05-19T03:11:32.120Z,9.0473
2023-05-19T03:12:32.565Z,9.0406
2023-05-19T03:13:33.489Z,9.0347
2023-05-19T03:15:34.080Z,9.0245
2023-05-19T03:16:35.248Z,9.0174
2023-05-19T03:17:35.593Z,9.0119
2023-05-19T03:18:35.699Z,9.0033
2023-05-19T03:19:37.109Z,8.9901
2023-05-19T03:20:40.922Z,8.9777
2023-05-19T03:21:39.976Z,8.9643
2023-05-19T03:25:42.301Z,8.8924
2023-05-19T03:27:43.017Z,8.8561
2023-05-19T03:28:43.569Z,8.8359
2023-05-19T03:30:43.371Z,8.7930
2023-05-19T03:31:43.492Z,8.7658
2023-05-19T03:32:43.768Z,8.7365
2023-05-19T03:33:44.557Z,8.7114
2023-05-19T03:35:45.741Z,8.6564
2023-05-19T03:36:46.068Z,8.6253
2023-05-19T03:37:46.692Z,8.5983
2023-05-19T03:38:47.801Z,8.5750
2023-05-19T03:44:50.264Z,8.4780
2023-05-19T03:45:50.926Z,8.4649
2023-05-19T03:46:52.717Z,8.4497
2023-05-19T03:47:53.412Z,8.4355
2023-05-19T03:48:54.979Z,8.4270
2023-05-19T03:53:55.600Z,8.3491
2023-05-19T03:54:57.020Z,8.3303
2023-05-19T04:04:01.936Z,8.2837
2023-05-19T04:09:04.212Z,8.3270
2023-05-19T04:10:04.570Z,8.3400
2023-05-19T04:12:07.721Z,8.3649
2023-05-19T04:14:09.666Z,8.3863
2023-05-19T04:15:09.802Z,8.3958
2023-05-19T04:16:11.425Z,8.4044
2023-05-19T04:18:11.872Z,8.4196
2023-05-19T04:20:13.182Z,8.4380
2023-05-19T04:21:13.864Z,8.4526
2023-05-19T04:22:15.057Z,8.4732
2023-05-19T04:23:15.814Z,8.4983
2023-05-19T04:24:17.327Z,8.5248
2023-05-19T04:25:17.490Z,8.5502
2023-05-19T04:26:17.964Z,8.5766
2023-05-19T04:27:19.163Z,8.6045
2023-05-19T04:30:21.929Z,8.7068
2023-05-19T04:31:22.051Z,8.7415
2023-05-19T04:32:22.851Z,8.7840
2023-05-19T04:33:24.270Z,8.8252
2023-05-19T04:34:25.318Z,8.8683
2023-05-19T04:38:26.847Z,9.0479
2023-05-19T04:39:27.489Z,9.0973
2023-05-19T04:40:27.806Z,9.1502
2023-05-19T04:41:28.759Z,9.2017
2023-05-19T04:42:29.883Z,9.2501
2023-05-19T04:43:30.160Z,9.3023
2023-05-19T04:44:31.559Z,9.3535
2023-05-19T04:45:31.738Z,9.4081
2023-05-19T04:47:34.627Z,9.5228
2023-05-19T04:53:39.282Z,9.9298
2023-05-19T04:54:39.511Z,10.0018
2023-05-19T04:55:39.873Z,10.0786
2023-05-19T04:56:40.443Z,10.1507
2023-05-19T05:04:43.595Z,10.7169
2023-05-19T05:05:45.365Z,10.7943
2023-05-19T05:07:45.593Z,10.9546
2023-05-19T05:08:46.688Z,11.0327
2023-05-19T05:09:47.093Z,11.1148
2023-05-19T05:10:47.706Z,11.2006
2023-05-19T05:22:54.908Z,12.1978
2023-05-19T05:23:56.150Z,12.2636
2023-05-19T05:24:56.251Z,12.3137
2023-05-19T05:25:56.650Z,12.3604
2023-05-19T05:28:59.807Z,12.4867
2023-05-19T05:30:00.298Z,12.5258
2023-05-19T05:31:00.518Z,12.5478
2023-05-19T05:32:00.927Z,12.5512
2023-05-19T05:33:01.270Z,12.5461
2023-05-19T05:34:02.333Z,12.5377
2023-05-19T05:35:03.404Z,12.5289
2023-05-19T05:36:04.882Z,12.5197
2023-05-19T05:37:06.278Z,12.5086
2023-05-19T05:38:07.047Z,12.4978
2023-05-19T05:39:08.397Z,12.4898
2023-05-19T05:40:08.807Z,12.4791
2023-05-19T05:41:09.856Z,12.4640
2023-05-19T05:42:11.063Z,12.4525
2023-05-19T05:43:12.534Z,12.4405
2023-05-19T05:44:12.767Z,12.4219
2023-05-19T05:45:13.212Z,12.3987
2023-05-19T05:56:20.348Z,12.1997
2023-05-19T05:57:20.813Z,12.1874
2023-05-19T05:58:21.726Z,12.1687
2023-05-19T05:59:22.713Z,12.1506
2023-05-19T06:01:22.168Z,12.1169
2023-05-19T06:02:23.786Z,12.1034
2023-05-19T06:03:24.719Z,12.0927
2023-05-19T06:04:26.005Z,12.0763
2023-05-19T06:05:26.446Z,12.0565
2023-05-19T06:06:27.486Z,12.0348
2023-05-19T06:07:28.007Z,12.0123
2023-05-19T06:11:07.230Z,11.9134
2023-05-19T06:12:08.276Z,11.8940
2023-05-19T06:13:08.890Z,11.8770
2023-05-19T06:14:09.516Z,11.8626
2023-05-19T06:15:09.782Z,11.8478
2023-05-19T06:17:12.830Z,11.8300
2023-05-19T06:18:13.850Z,11.8222
2023-05-19T06:23:18.183Z,11.7588
2023-05-19T06:24:18.853Z,11.7282
2023-05-19T06:25:18.878Z,11.7005
2023-05-19T06:29:21.377Z,11.6036
2023-05-19T06:30:21.836Z,11.5917
2023-05-19T06:31:22.930Z,11.5816
2023-05-19T06:32:22.919Z,11.5767
2023-05-19T06:33:25.556Z,11.5756
2023-05-19T06:34:25.681Z,11.5774
2023-05-19T06:39:30.351Z,11.5699
2023-05-19T06:40:31.498Z,11.5622
2023-05-19T06:42:32.022Z,11.5536
2023-05-19T06:43:32.396Z,11.5471
2023-05-19T06:44:33.477Z,11.5448
2023-05-19T06:45:34.216Z,11.5465
2023-05-19T06:46:34.346Z,11.5519
2023-05-19T06:47:35.498Z,11.5549
2023-05-19T06:48:35.784Z,11.5553
2023-05-19T06:49:37.761Z,11.5516
2023-05-19T06:54:39.136Z,11.5083
2023-05-19T06:55:54.356Z,11.4997
2023-05-19T06:56:40.725Z,11.4973
2023-05-19T06:58:43.640Z,11.5237
2023-05-19T06:59:43.934Z,11.5470
2023-05-19T07:00:44.883Z,11.5682
2023-05-19T07:09:47.200Z,11.7505
2023-05-19T07:12:48.598Z,11.9130
2023-05-19T07:15:49.701Z,12.1833
2023-05-19T07:16:50.253Z,12.2696
2023-05-19T07:17:52.120Z,12.3401
2023-05-19T07:18:52.507Z,12.4035
2023-05-19T07:19:53.810Z,12.4541
2023-05-19T07:20:54.102Z,12.4908
2023-05-19T07:21:55.620Z,12.5306
2023-05-19T07:22:55.903Z,12.5805
2023-05-19T07:23:57.113Z,12.6429
2023-05-19T07:26:58.849Z,12.8922
2023-05-19T07:27:59.266Z,12.9750
2023-05-19T07:29:12.203Z,13.0671
2023-05-19T07:30:02.156Z,13.1732
2023-05-19T07:31:03.278Z,13.2640
2023-05-19T07:32:04.074Z,13.3715
2023-05-19T07:33:05.340Z,13.4859
2023-05-19T07:34:06.244Z,13.5875
2023-05-19T07:35:06.575Z,13.6730
2023-05-19T07:36:07.984Z,13.7300
2023-05-19T07:39:11.295Z,13.8002
2023-05-19T07:40:12.006Z,13.8266
2023-05-19T07:41:13.022Z,13.8651
2023-05-19T07:42:13.514Z,13.9323
2023-05-19T07:43:14.702Z,14.0237
2023-05-19T07:44:15.581Z,14.1143
2023-05-19T07:45:16.710Z,14.2192
2023-05-19T07:49:18.357Z,14.8538
2023-05-19T07:50:19.310Z,15.0263
2023-05-19T07:51:19.558Z,15.1892
2023-05-19T07:54:21.657Z,15.5649
2023-05-19T07:55:22.106Z,15.7193
2023-05-19T07:56:22.823Z,15.8999
2023-05-19T07:57:23.207Z,16.0802
2023-05-19T07:58:24.073Z,16.2400
2023-05-19T07:59:25.427Z,16.3957
2023-05-19T08:00:26.070Z,16.5348
2023-05-19T08:01:27.134Z,16.6440
2023-05-19T08:02:27.670Z,16.7344
2023-05-19T08:04:29.651Z,16.8753
2023-05-19T08:05:30.303Z,16.9339
2023-05-19T08:06:30.867Z,16.9656
2023-05-19T08:07:31.354Z,16.9653
2023-05-19T08:12:33.891Z,16.6252
2023-05-19T08:13:34.669Z,16.5174
2023-05-19T08:14:34.962Z,16.4315
2023-05-19T08:15:35.478Z,16.3665
2023-05-19T08:16:36.021Z,16.3325
2023-05-19T08:17:36.928Z,16.3332
2023-05-19T08:18:37.766Z,16.3606
2023-05-19T08:21:38.737Z,16.4664
2023-05-19T08:22:38.971Z,16.4931
2023-05-19T08:23:39.902Z,16.5109
2023-05-19T08:24:40.705Z,16.5310
2023-05-19T08:25:42.358Z,16.5622
2023-05-19T08:26:43.232Z,16.5889
2023-05-19T08:27:44.022Z,16.6023
2023-05-19T08:28:44.969Z,16.6062
2023-05-19T08:29:45.977Z,16.6091
2023-05-19T08:33:47.502Z,16.6070
2023-05-19T08:34:47.883Z,16.6070
2023-05-19T08:35:47.922Z,16.6086
2023-05-19T08:36:49.060Z,16.6147
2023-05-19T08:37:49.155Z,16.6075
2023-05-19T08:38:50.117Z,16.5921
2023-05-19T08:39:51.327Z,16.5709
2023-05-19T08:40:51.735Z,16.5543
2023-05-19T08:52:19.439Z,17.3643
2023-05-19T08:54:19.789Z,17.6066
2023-05-19T08:55:20.777Z,17.7324
2023-05-19T08:56:21.872Z,17.8583
2023-05-19T08:57:22.927Z,17.9908
2023-05-19T08:58:23.765Z,18.1330
2023-05-19T08:59:24.600Z,18.2817
2023-05-19T09:00:25.689Z,18.4205
2023-05-19T09:01:25.938Z,18.5476
2023-05-19T09:02:27.057Z,18.6503
2023-05-19T09:03:28.691Z,18.7382
2023-05-19T09:04:29.994Z,18.8305
2023-05-19T09:05:29.465Z,18.8950
2023-05-19T09:06:30.187Z,18.9501
2023-05-19T09:07:31.459Z,19.0126
2023-05-19T09:08:32.582Z,19.0601
2023-05-19T09:09:32.753Z,19.0773
2023-05-19T09:10:33.476Z,19.0793
2023-05-19T09:11:33.616Z,19.0697
2023-05-19T09:12:34.824Z,19.0717
2023-05-19T09:13:36.007Z,19.0907
2023-05-19T09:14:37.208Z,19.1151
2023-05-19T09:32:51.180Z,18.7614
2023-05-19T09:33:51.426Z,18.7199
2023-05-19T09:34:52.551Z,18.6740
2023-05-19T09:35:52.684Z,18.6159
2023-05-19T09:36:53.861Z,18.5501
2023-05-19T09:37:54.132Z,18.4938
2023-05-19T09:38:55.160Z,18.4772
2023-05-19T09:39:56.112Z,18.5194
2023-05-19T09:40:57.048Z,18.6053
2023-05-19T09:41:58.065Z,18.6923
2023-05-19T09:42:59.133Z,18.7857
2023-05-19T09:44:00.189Z,18.9116
2023-05-19T09:45:01.270Z,19.0526
2023-05-19T09:46:02.288Z,19.1950
2023-05-19T09:47:03.246Z,19.3111
2023-05-19T09:48:04.171Z,19.3998
2023-05-19T09:49:04.186Z,19.4921
2023-05-19T09:50:05.089Z,19.5673
2023-05-19T09:51:06.206Z,19.6354
2023-05-19T09:52:07.214Z,19.7155
2023-05-19T09:53:08.191Z,19.8012
2023-05-19T09:54:08.298Z,19.8924
2023-05-19T09:55:09.342Z,19.9866
2023-05-19T09:56:09.365Z,20.0741
2023-05-19T09:57:10.384Z,20.1447
2023-05-19T10:20:28.893Z,21.6011
2023-05-19T10:21:30.063Z,21.5910
2023-05-19T10:22:31.270Z,21.5688
2023-05-19T10:23:32.049Z,21.5723
2023-05-19T10:24:33.162Z,21.6154
2023-05-19T10:25:34.425Z,21.6806
2023-05-19T10:26:34.331Z,21.7730
2023-05-19T10:27:35.271Z,21.8531
2023-05-19T10:28:36.190Z,21.8968
2023-05-19T10:29:37.098Z,21.9013
2023-05-19T10:30:38.150Z,21.8891
2023-05-19T10:31:39.319Z,21.8715
2023-05-19T10:32:39.397Z,21.8522
2023-05-19T10:33:40.432Z,21.8204
2023-05-19T10:34:41.277Z,21.7765
2023-05-19T10:35:42.199Z,21.7494
2023-05-19T10:36:42.266Z,21.7561
2023-05-19T10:37:43.449Z,21.7816
2023-05-19T10:38:44.527Z,21.7932
2023-05-19T10:39:45.094Z,21.7810
2023-05-19T10:40:46.093Z,21.7622
2023-05-19T10:41:47.063Z,21.7345
2023-05-19T10:42:46.928Z,21.7069
2023-05-19T10:43:48.182Z,21.6797
2023-05-19T10:44:48.733Z,21.6423
2023-05-19T10:45:48.944Z,21.6147
2023-05-19T10:46:49.474Z,21.6119
2023-05-19T11:03:04.226Z,22.7134
2023-05-19T11:04:05.989Z,22.8233
2023-05-19T11:05:06.457Z,22.9140
2023-05-19T11:06:07.481Z,22.9689
2023-05-19T11:07:08.644Z,22.9584
2023-05-19T11:08:09.668Z,22.8947
2023-05-19T11:09:10.695Z,22.7925
2023-05-19T11:10:10.895Z,22.6496
2023-05-19T11:11:11.829Z,22.5120
2023-05-19T11:12:12.754Z,22.3933
2023-05-19T11:13:14.909Z,22.2946
2023-05-19T11:14:14.737Z,22.2227
2023-05-19T11:15:15.718Z,22.2056
2023-05-19T11:16:16.889Z,22.2426
2023-05-19T11:17:18.078Z,22.3118
2023-05-19T11:18:18.785Z,22.3958
2023-05-19T11:19:20.002Z,22.4932
2023-05-19T11:20:20.109Z,22.5982
2023-05-19T11:21:21.227Z,22.7258
2023-05-19T11:22:22.152Z,22.8633
2023-05-19T11:23:23.442Z,22.9828
2023-05-19T11:24:23.448Z,23.0668
2023-05-19T11:25:24.435Z,23.1016
2023-05-19T11:26:25.271Z,23.0964
2023-05-19T11:27:26.153Z,23.0464
2023-05-19T11:28:26.992Z,22.9608
2023-05-19T11:29:27.858Z,22.8401
2023-05-19T11:30:28.849Z,22.7120
2023-05-19T11:31:29.777Z,22.5702
2023-05-19T11:32:30.955Z,22.4080
2023-05-19T11:33:30.813Z,22.2613
2023-05-19T11:34:31.673Z,22.1732
2023-05-19T11:35:35.444Z,22.1273
2023-05-19T11:36:32.809Z,22.1156
2023-05-19T11:37:33.576Z,22.1510
2023-05-19T11:38:34.388Z,22.2228
2023-05-19T11:39:35.401Z,22.3404
2023-05-19T11:40:36.222Z,22.4882
2023-05-19T11:41:37.267Z,22.6819
2023-05-19T11:42:38.268Z,23.0132
2023-05-19T11:43:39.275Z,23.4092
2023-05-19T11:44:40.482Z,23.8513
2023-05-19T11:45:41.188Z,24.2897
2023-05-19T11:46:42.352Z,24.6532
2023-05-19T11:48:00.895Z,24.8864
2023-05-19T11:48:44.021Z,25.0868
2023-05-19T11:49:44.862Z,25.2249
2023-05-19T11:50:45.896Z,25.3813
2023-05-19T11:51:47.015Z,25.5893
2023-05-19T11:52:48.180Z,25.7953
2023-05-19T11:53:48.381Z,25.9592
2023-05-19T11:54:49.442Z,26.0851
2023-05-19T11:55:50.932Z,26.2149
2023-05-19T11:56:50.775Z,26.3617
2023-05-19T11:58:02.903Z,26.5246
2023-05-19T11:58:52.374Z,26.7074
2023-05-19T11:59:53.392Z,26.8888
2023-05-19T12:00:54.448Z,27.0731
2023-05-19T12:01:54.612Z,27.2532
2023-05-19T12:02:54.707Z,27.4460
2023-05-19T12:03:54.796Z,27.6436
2023-05-19T12:04:55.831Z,27.8057
2023-05-19T12:05:56.618Z,27.9489
2023-05-19T12:06:56.459Z,28.0564
2023-05-19T12:07:57.674Z,28.1434
2023-05-19T12:08:58.609Z,28.2086
2023-05-19T12:09:59.670Z,28.2605
2023-05-19T12:11:00.531Z,28.2932
2023-05-19T12:12:01.493Z,28.2774
2023-05-19T12:13:02.441Z,28.2168
2023-05-19T12:14:03.411Z,28.1259
2023-05-19T12:15:04.334Z,28.0249
2023-05-19T12:16:05.402Z,27.9324
2023-05-19T12:17:06.533Z,27.8616
2023-05-19T12:18:07.748Z,27.8050
2023-05-19T12:19:08.678Z,27.7546
2023-05-19T12:20:09.916Z,27.7274
2023-05-19T12:21:09.877Z,27.7489
2023-05-19T12:22:10.058Z,27.8439
2023-05-19T12:23:10.082Z,27.9750
2023-05-19T12:24:10.878Z,28.0647
2023-05-19T12:25:11.778Z,28.1805
2023-05-19T12:26:11.881Z,28.3029
2023-05-19T12:27:12.987Z,28.4286
2023-05-19T12:28:14.808Z,28.5523
2023-05-19T12:38:22.091Z,29.4229
2023-05-19T12:39:22.985Z,29.4884
2023-05-19T12:40:24.056Z,29.5169
2023-05-19T12:41:25.228Z,29.4651
2023-05-19T12:42:26.152Z,29.3246
2023-05-19T12:43:27.320Z,29.1532
2023-05-19T12:44:28.301Z,28.9677
2023-05-19T12:45:29.174Z,28.7887
2023-05-19T12:46:30.406Z,28.6416
2023-05-19T12:47:31.353Z,28.5101
2023-05-19T12:48:31.436Z,28.3697
2023-05-19T12:49:32.518Z,28.1987
2023-05-19T12:50:32.966Z,28.0197
2023-05-19T12:51:33.494Z,27.8393
2023-05-19T12:52:34.149Z,27.6422
2023-05-19T12:53:35.080Z,27.4357
2023-05-19T12:54:36.296Z,27.2346
2023-05-19T12:57:37.457Z,26.6658
2023-05-19T12:58:37.496Z,26.4996
2023-05-19T12:59:38.992Z,26.3751
2023-05-19T13:00:39.150Z,26.2759
2023-05-19T13:01:40.581Z,26.2230
2023-05-19T13:02:41.543Z,26.1704
2023-05-19T13:03:42.060Z,26.0949
2023-05-19T13:04:43.173Z,26.0425
2023-05-19T13:05:44.218Z,26.0321
2023-05-19T13:06:45.168Z,26.0806
2023-05-19T13:07:45.979Z,26.1798
2023-05-19T13:08:46.823Z,26.2658
2023-05-19T13:09:47.055Z,26.3692
2023-05-19T13:10:47.935Z,26.4611
2023-05-19T13:11:48.835Z,26.4981
2023-05-19T13:12:49.849Z,26.4604
2023-05-19T13:13:49.962Z,26.3468
2023-05-19T13:14:51.660Z,26.1591
2023-05-19T13:15:51.191Z,25.8851
2023-05-19T13:16:52.275Z,25.5707
2023-05-19T13:17:53.273Z,25.2511
2023-05-19T13:18:53.670Z,24.9348
2023-05-19T13:19:54.382Z,24.6234
2023-05-19T13:20:55.314Z,24.3440
2023-05-19T13:21:56.467Z,24.0634
2023-05-19T13:22:57.418Z,23.8037
2023-05-19T13:23:58.486Z,23.5629
2023-05-19T13:24:59.442Z,23.3467
2023-05-19T13:26:00.053Z,23.1781
2023-05-19T13:27:00.263Z,23.0540
2023-05-19T13:28:01.560Z,22.9620
2023-05-19T13:29:02.502Z,22.8853
2023-05-19T13:30:03.418Z,22.8366
2023-05-19T13:31:04.425Z,22.8185
2023-05-19T13:32:04.397Z,22.7998
2023-05-19T13:33:05.652Z,22.7611
2023-05-19T13:34:06.204Z,22.6963
2023-05-19T13:35:07.004Z,22.6309
2023-05-19T13:36:07.378Z,22.5565
2023-05-19T13:48:16.355Z,21.1399
2023-05-19T13:49:17.360Z,21.1071
2023-05-19T13:50:18.344Z,21.0875
2023-05-19T13:51:19.302Z,21.0888
2023-05-19T13:52:20.380Z,21.1075
2023-05-19T13:53:21.450Z,21.1470
2023-05-19T13:54:22.677Z,21.1972
2023-05-19T13:55:23.729Z,21.2347
2023-05-19T13:56:24.555Z,21.2444
2023-05-19T13:57:25.505Z,21.2243
2023-05-19T13:58:26.438Z,21.1785
2023-05-19T13:59:27.448Z,21.1106
2023-05-19T14:00:27.865Z,21.0147
2023-05-19T14:01:28.022Z,20.8979
2023-05-19T14:13:43.685Z,19.2526
2023-05-19T14:14:43.699Z,19.1244
2023-05-19T14:15:43.794Z,19.0103
2023-05-19T14:16:45.300Z,18.9070
2023-05-19T14:17:46.390Z,18.8057
2023-05-19T14:18:46.475Z,18.7198
2023-05-19T14:19:47.658Z,18.6489
2023-05-19T14:20:48.676Z,18.5872
2023-05-19T14:21:49.687Z,18.5378
2023-05-19T14:22:50.675Z,18.4957
2023-05-19T14:23:51.919Z,18.4666
2023-05-19T14:24:52.680Z,18.4551
2023-05-19T14:25:53.777Z,18.4565
2023-05-19T14:26:53.899Z,18.4592
2023-05-19T14:27:55.044Z,18.4520
2023-05-19T14:28:56.247Z,18.4312
2023-05-19T14:29:57.138Z,18.3990
2023-05-19T14:30:57.272Z,18.3651
2023-05-19T14:31:58.555Z,18.3341
2023-05-19T14:32:59.589Z,18.3015
2023-05-19T14:34:00.786Z,18.2638
2023-05-19T14:35:01.727Z,18.2203
2023-05-19T14:36:02.783Z,18.1693
2023-05-19T14:37:03.840Z,18.1119
2023-05-19T14:38:04.998Z,18.0519
2023-05-19T14:39:05.771Z,17.9890
2023-05-19T14:40:08.813Z,17.9305
2023-05-19T14:45:10.230Z,17.7705
2023-05-19T15:16:34.241Z,18.0424
2023-05-19T15:17:35.498Z,18.0491
2023-05-19T15:18:36.662Z,18.0422
2023-05-19T15:19:36.894Z,18.0096
2023-05-19T15:20:40.278Z,17.9462
2023-05-19T15:21:40.550Z,17.8518
2023-05-19T15:23:41.261Z,17.6556
2023-05-19T15:28:03.122Z,17.2007
2023-05-19T15:29:04.370Z,17.0955
2023-05-19T15:30:05.139Z,16.9973
2023-05-19T15:32:06.197Z,16.8220
2023-05-19T15:34:07.636Z,16.6666
2023-05-19T15:35:07.938Z,16.6006
2023-05-19T15:36:08.221Z,16.5394
2023-05-19T15:37:09.674Z,16.4877
2023-05-19T15:38:09.366Z,16.4431
2023-05-19T15:39:10.697Z,16.3987
2023-05-19T15:40:11.974Z,16.3628
2023-05-19T15:46:15.456Z,16.2249
2023-05-19T15:47:15.968Z,16.2034
2023-05-19T15:48:17.960Z,16.1847
2023-05-19T15:49:18.248Z,16.1608
2023-05-19T15:52:21.286Z,16.0785
2023-05-19T15:53:22.558Z,16.0599
2023-05-19T15:54:23.332Z,16.0498
2023-05-19T15:55:24.150Z,16.0505
2023-05-19T15:56:24.263Z,16.0585
2023-05-19T15:57:25.356Z,16.0709
2023-05-19T15:58:26.185Z,16.0908
2023-05-19T15:59:27.389Z,16.1195
2023-05-19T16:01:28.122Z,16.1721
2023-05-19T16:03:27.714Z,16.2503
2023-05-19T16:04:28.788Z,16.2899
2023-05-19T16:05:29.093Z,16.3203
2023-05-19T16:06:30.079Z,16.3477
2023-05-19T16:07:30.475Z,16.3802
2023-05-19T16:08:31.009Z,16.4138
2023-05-19T16:09:32.227Z,16.4520
2023-05-19T16:10:32.898Z,16.4901
2023-05-19T16:12:33.824Z,16.5873
2023-05-19T16:13:35.112Z,16.6472
2023-05-19T16:15:35.602Z,16.7675
2023-05-19T16:16:37.052Z,16.8207
2023-05-19T16:17:36.848Z,16.8790
2023-05-19T16:18:38.378Z,16.9449
2023-05-19T16:19:38.385Z,17.0023
2023-05-19T16:21:39.128Z,17.1480
2023-05-19T16:32:44.369Z,17.7913
2023-05-19T16:33:44.597Z,17.7713
2023-05-19T16:34:45.581Z,17.7317
2023-05-19T16:36:46.830Z,17.6251
2023-05-19T16:38:47.891Z,17.5028
2023-05-19T16:39:48.370Z,17.4450
2023-05-19T16:45:52.597Z,17.2142
2023-05-19T16:46:53.309Z,17.1595
2023-05-19T16:47:54.677Z,17.1069
2023-05-19T16:48:55.825Z,17.0482
2023-05-19T16:49:56.017Z,16.9955
2023-05-19T16:51:57.154Z,16.8750
2023-05-19T16:52:57.500Z,16.8164
2023-05-19T16:53:57.664Z,16.7654
2023-05-19T16:56:00.451Z,16.6592
2023-05-19T16:57:01.493Z,16.6075
2023-05-19T16:59:02.118Z,16.4912
2023-05-19T17:00:03.302Z,16.4305
2023-05-19T17:01:03.774Z,16.3684
2023-05-19T17:02:05.117Z,16.3103
2023-05-19T17:03:05.368Z,16.2510
2023-05-19T17:04:05.577Z,16.1912
2023-05-19T17:05:07.186Z,16.1282
2023-05-19T17:06:07.431Z,16.0584
2023-05-19T17:08:08.374Z,15.9067
2023-05-19T17:09:09.267Z,15.8341
2023-05-19T17:10:10.599Z,15.7635
2023-05-19T17:11:11.458Z,15.6979
2023-05-19T17:12:11.808Z,15.6383
2023-05-19T17:13:12.995Z,15.5780
2023-05-19T17:14:14.205Z,15.5230
2023-05-19T17:15:15.035Z,15.4680
2023-05-19T17:16:15.913Z,15.4164
2023-05-19T17:17:16.045Z,15.3665
2023-05-19T17:18:16.880Z,15.3227
2023-05-19T17:19:17.836Z,15.2759
2023-05-19T17:20:18.382Z,15.2255
2023-05-19T17:21:19.589Z,15.1802
2023-05-19T17:22:20.178Z,15.1281
2023-05-19T17:23:20.867Z,15.0761
2023-05-19T17:24:21.775Z,15.0266
2023-05-19T17:25:22.146Z,14.9749
2023-05-19T17:26:23.153Z,14.9244
2023-05-19T17:27:24.039Z,14.8745
2023-05-19T17:32:26.185Z,14.6156
2023-05-19T17:34:27.470Z,14.5252
2023-05-19T17:35:28.657Z,14.4806
2023-05-19T17:36:29.042Z,14.4364
2023-05-19T17:37:30.524Z,14.3960
2023-05-19T17:40:32.008Z,14.2779
2023-05-19T17:42:32.547Z,14.2071
2023-05-19T17:43:32.809Z,14.1692
2023-05-19T17:45:36.439Z,14.1011
2023-05-19T17:54:41.864Z,13.8186
2023-05-19T17:55:42.398Z,13.7914
2023-05-19T17:56:43.939Z,13.7639
2023-05-19T17:57:45.662Z,13.7371
2023-05-19T17:58:45.975Z,13.7109
2023-05-19T17:59:46.099Z,13.6833
2023-05-19T18:00:47.752Z,13.6560
2023-05-19T18:01:47.913Z,13.6293
2023-05-19T18:02:48.404Z,13.6003
2023-05-19T18:03:50.013Z,13.5734
2023-05-19T18:08:52.853Z,13.4413
2023-05-19T18:09:53.215Z,13.4161
2023-05-19T18:11:56.193Z,13.3707
2023-05-19T18:12:57.428Z,13.3485
2023-05-19T18:14:59.101Z,13.3038
2023-05-19T18:16:00.268Z,13.2804
2023-05-19T18:17:00.519Z,13.2576
2023-05-19T18:18:01.099Z,13.2364
2023-05-19T18:19:01.952Z,13.2158
2023-05-19T18:30:09.731Z,12.9944
2023-05-19T18:31:10.669Z,12.9752
2023-05-19T18:32:11.097Z,12.9548
2023-05-19T18:33:12.109Z,12.9371
2023-05-19T18:34:11.496Z,12.9159
2023-05-19T18:35:12.644Z,12.8973
2023-05-19T18:36:13.963Z,12.8773
2023-05-19T18:37:14.920Z,12.8582
2023-05-19T18:38:15.103Z,12.8390
2023-05-19T18:39:16.115Z,12.8221
2023-05-19T18:40:16.550Z,12.8038
2023-05-19T18:41:16.820Z,12.7870
2023-05-19T18:43:20.345Z,12.7539
2023-05-19T18:44:21.438Z,12.7388
2023-05-19T18:53:28.614Z,12.6146
2023-05-19T18:54:29.595Z,12.6017
2023-05-19T18:56:30.283Z,12.5741
2023-05-19T18:57:30.793Z,12.5595
2023-05-19T18:59:33.852Z,12.5296
2023-05-19T19:00:35.269Z,12.5143
2023-05-19T19:01:35.292Z,12.5001
2023-05-19T19:02:36.335Z,12.4870
2023-05-19T19:03:37.781Z,12.4750
2023-05-19T19:04:38.247Z,12.4603
2023-05-19T19:05:39.609Z,12.4464
2023-05-19T19:06:42.014Z,12.4360
2023-05-19T19:15:47.580Z,12.3333
2023-05-19T19:16:48.699Z,12.3227
2023-05-19T19:17:49.625Z,12.3115
2023-05-19T19:18:50.687Z,12.3010
2023-05-19T19:19:51.281Z,12.2914
2023-05-19T19:20:51.487Z,12.2817
2023-05-19T19:21:52.365Z,12.2729
2023-05-19T19:22:52.750Z,12.2632
2023-05-19T19:23:53.946Z,12.2543
2023-05-19T19:24:55.121Z,12.2472
2023-05-19T19:25:55.653Z,12.2405
2023-05-19T19:26:57.080Z,12.2346
2023-05-19T19:27:57.322Z,12.2280
2023-05-19T19:28:57.414Z,12.2198
2023-05-19T19:29:58.302Z,12.2128
2023-05-19T19:36:03.797Z,12.1583
2023-05-19T19:37:05.272Z,12.1521
2023-05-19T19:39:06.154Z,12.1352
2023-05-19T19:40:06.243Z,12.1293
2023-05-19T19:41:07.240Z,12.1211
2023-05-19T19:42:08.415Z,12.1172
2023-05-19T19:43:09.064Z,12.1122
2023-05-19T19:44:10.290Z,12.1094
2023-05-19T19:45:12.496Z,12.1063
2023-05-19T19:46:12.271Z,12.1019
2023-05-19T19:47:12.783Z,12.0980
2023-05-19T19:48:13.091Z,12.0942
2023-05-19T19:49:13.959Z,12.0907
2023-05-19T19:50:15.061Z,12.0855
2023-05-19T19:51:16.294Z,12.0816
2023-05-19T19:52:17.636Z,12.0765
2023-05-19T19:58:21.215Z,12.0433
2023-05-19T19:59:21.571Z,12.0381
2023-05-19T20:00:22.403Z,12.0339
2023-05-19T20:01:22.869Z,12.0298
2023-05-19T20:07:26.012Z,12.0033
2023-05-19T20:08:27.107Z,11.9999
2023-05-19T20:10:30.370Z,11.9923
2023-05-19T20:12:31.409Z,11.9869